sensor_id;sensor_type;location;lat;lon;timestamp;P1;durP1;ratioP1;P2;durP2;ratioP2
20012;SDS011;10167;42.852;23.042;2022-12-29T00:01:09;2.00;;;1.85;;
20012;SDS011;10167;42.852;23.042;2022-12-29T00:03:38;1.27;;;1.17;;
20012;SDS011;10167;42.852;23.042;2022-12-29T00:06:08;3.92;;;3.22;;
20012;SDS011;10167;42.852;23.042;2022-12-29T00:08:37;1.98;;;1.88;;
20012;SDS011;10167;42.852;23.042;2022-12-29T00:11:11;1.73;;;1.55;;
20012;SDS011;10167;42.852;23.042;2022-12-29T00:13:42;19.00;;;2.67;;
20012;SDS011;10167;42.852;23.042;2022-12-29T00:16:28;1.17;;;1.17;;
20012;SDS011;10167;42.852;23.042;2022-12-29T00:18:59;4.20;;;1.77;;
20012;SDS011;10167;42.852;23.042;2022-12-29T00:21:28;1.27;;;1.23;;
20012;SDS011;10167;42.852;23.042;2022-12-29T00:24:16;2.20;;;1.17;;
20012;SDS011;10167;42.852;23.042;2022-12-29T00:27:11;1.27;;;1.27;;
20012;SDS011;10167;42.852;23.042;2022-12-29T00:29:59;1.95;;;1.85;;
20012;SDS011;10167;42.852;23.042;2022-12-29T00:32:45;1.90;;;1.80;;
20012;SDS011;10167;42.852;23.042;2022-12-29T00:35:33;2.55;;;1.95;;
20012;SDS011;10167;42.852;23.042;2022-12-29T00:38:07;3.20;;;2.38;;
20012;SDS011;10167;42.852;23.042;2022-12-29T00:40:55;2.83;;;1.65;;
20012;SDS011;10167;42.852;23.042;2022-12-29T00:43:47;6.63;;;3.22;;
20012;SDS011;10167;42.852;23.042;2022-12-29T00:46:37;1.40;;;1.02;;
20012;SDS011;10167;42.852;23.042;2022-12-29T00:49:09;3.70;;;2.05;;
20012;SDS011;10167;42.852;23.042;2022-12-29T00:51:58;1.33;;;1.23;;
20012;SDS011;10167;42.852;23.042;2022-12-29T00:54:32;2.50;;;2.30;;
20012;SDS011;10167;42.852;23.042;2022-12-29T00:57:03;1.50;;;1.45;;
20012;SDS011;10167;42.852;23.042;2022-12-29T00:59:35;2.30;;;1.42;;
20012;SDS011;10167;42.852;23.042;2022-12-29T01:02:05;2.05;;;1.38;;
20012;SDS011;10167;42.852;23.042;2022-12-29T01:04:35;1.13;;;1.08;;
20012;SDS011;10167;42.852;23.042;2022-12-29T01:07:05;1.48;;;1.25;;
20012;SDS011;10167;42.852;23.042;2022-12-29T01:09:34;1.05;;;1.00;;
20012;SDS011;10167;42.852;23.042;2022-12-29T01:12:20;2.05;;;1.85;;
20012;SDS011;10167;42.852;23.042;2022-12-29T01:15:12;2.22;;;1.02;;
20012;SDS011;10167;42.852;23.042;2022-12-29T01:17:43;2.40;;;1.73;;
20012;SDS011;10167;42.852;23.042;2022-12-29T01:20:12;3.38;;;1.55;;
20012;SDS011;10167;42.852;23.042;2022-12-29T01:22:41;1.50;;;1.40;;
20012;SDS011;10167;42.852;23.042;2022-12-29T01:25:10;2.53;;;2.38;;
20012;SDS011;10167;42.852;23.042;2022-12-29T01:27:40;5.20;;;2.00;;
20012;SDS011;10167;42.852;23.042;2022-12-29T01:30:09;2.85;;;1.95;;
20012;SDS011;10167;42.852;23.042;2022-12-29T01:32:41;2.22;;;1.77;;
20012;SDS011;10167;42.852;23.042;2022-12-29T01:35:10;1.10;;;1.08;;
20012;SDS011;10167;42.852;23.042;2022-12-29T01:37:40;2.05;;;1.85;;
20012;SDS011;10167;42.852;23.042;2022-12-29T01:40:10;6.03;;;2.80;;
20012;SDS011;10167;42.852;23.042;2022-12-29T01:42:40;0.70;;;0.70;;
20012;SDS011;10167;42.852;23.042;2022-12-29T01:45:09;1.58;;;1.45;;
20012;SDS011;10167;42.852;23.042;2022-12-29T01:47:42;0.90;;;0.90;;
20012;SDS011;10167;42.852;23.042;2022-12-29T01:50:18;2.25;;;2.05;;
20012;SDS011;10167;42.852;23.042;2022-12-29T01:52:55;0.52;;;0.50;;
20012;SDS011;10167;42.852;23.042;2022-12-29T01:55:29;2.65;;;2.15;;
20012;SDS011;10167;42.852;23.042;2022-12-29T01:58:03;1.23;;;1.23;;
20012;SDS011;10167;42.852;23.042;2022-12-29T02:00:34;1.42;;;1.30;;
20012;SDS011;10167;42.852;23.042;2022-12-29T02:03:07;1.70;;;1.60;;
20012;SDS011;10167;42.852;23.042;2022-12-29T02:05:39;2.20;;;1.95;;
20012;SDS011;10167;42.852;23.042;2022-12-29T02:08:13;3.25;;;1.83;;
20012;SDS011;10167;42.852;23.042;2022-12-29T02:10:43;1.23;;;1.08;;
20012;SDS011;10167;42.852;23.042;2022-12-29T02:13:14;2.35;;;2.15;;
20012;SDS011;10167;42.852;23.042;2022-12-29T02:16:07;1.08;;;1.00;;
20012;SDS011;10167;42.852;23.042;2022-12-29T02:18:50;2.95;;;2.30;;
20012;SDS011;10167;42.852;23.042;2022-12-29T02:21:31;1.42;;;1.15;;
20012;SDS011;10167;42.852;23.042;2022-12-29T02:24:30;1.63;;;1.52;;
20012;SDS011;10167;42.852;23.042;2022-12-29T02:33:29;1.42;;;1.33;;
20012;SDS011;10167;42.852;23.042;2022-12-29T02:36:09;1.20;;;0.98;;
20012;SDS011;10167;42.852;23.042;2022-12-29T02:38:48;0.68;;;0.68;;
20012;SDS011;10167;42.852;23.042;2022-12-29T02:41:29;3.40;;;2.45;;
20012;SDS011;10167;42.852;23.042;2022-12-29T02:44:02;0.93;;;0.93;;
20012;SDS011;10167;42.852;23.042;2022-12-29T02:46:41;2.13;;;1.92;;
20012;SDS011;10167;42.852;23.042;2022-12-29T02:49:18;1.40;;;1.33;;
20012;SDS011;10167;42.852;23.042;2022-12-29T02:51:52;1.13;;;1.02;;
20012;SDS011;10167;42.852;23.042;2022-12-29T02:54:26;3.33;;;0.98;;
20012;SDS011;10167;42.852;23.042;2022-12-29T02:57:12;1.75;;;1.65;;
20012;SDS011;10167;42.852;23.042;2022-12-29T02:59:56;2.58;;;1.77;;
20012;SDS011;10167;42.852;23.042;2022-12-29T03:02:37;0.47;;;0.47;;
20012;SDS011;10167;42.852;23.042;2022-12-29T03:05:19;0.82;;;0.82;;
20012;SDS011;10167;42.852;23.042;2022-12-29T03:07:57;1.65;;;1.38;;
20012;SDS011;10167;42.852;23.042;2022-12-29T03:10:39;1.17;;;1.08;;
20012;SDS011;10167;42.852;23.042;2022-12-29T03:13:21;1.50;;;1.40;;
20012;SDS011;10167;42.852;23.042;2022-12-29T03:16:14;1.08;;;0.85;;
20012;SDS011;10167;42.852;23.042;2022-12-29T03:19:00;0.85;;;0.85;;
20012;SDS011;10167;42.852;23.042;2022-12-29T03:21:34;4.35;;;2.53;;
20012;SDS011;10167;42.852;23.042;2022-12-29T03:24:28;3.13;;;1.95;;
20012;SDS011;10167;42.852;23.042;2022-12-29T03:27:02;1.30;;;1.08;;
20012;SDS011;10167;42.852;23.042;2022-12-29T03:29:40;3.42;;;1.63;;
20012;SDS011;10167;42.852;23.042;2022-12-29T03:32:14;0.70;;;0.70;;
20012;SDS011;10167;42.852;23.042;2022-12-29T03:34:46;2.28;;;1.63;;
20012;SDS011;10167;42.852;23.042;2022-12-29T03:37:18;1.30;;;1.20;;
20012;SDS011;10167;42.852;23.042;2022-12-29T03:39:52;1.55;;;1.45;;
20012;SDS011;10167;42.852;23.042;2022-12-29T03:42:21;0.90;;;0.90;;
20012;SDS011;10167;42.852;23.042;2022-12-29T03:44:54;1.42;;;1.17;;
20012;SDS011;10167;42.852;23.042;2022-12-29T03:47:25;3.75;;;2.00;;
20012;SDS011;10167;42.852;23.042;2022-12-29T03:49:58;0.90;;;0.90;;
20012;SDS011;10167;42.852;23.042;2022-12-29T03:52:32;1.10;;;0.88;;
20012;SDS011;10167;42.852;23.042;2022-12-29T03:55:01;4.75;;;1.90;;
20012;SDS011;10167;42.852;23.042;2022-12-29T03:57:31;1.38;;;1.27;;
20012;SDS011;10167;42.852;23.042;2022-12-29T04:00:05;1.02;;;0.98;;
20012;SDS011;10167;42.852;23.042;2022-12-29T04:02:44;2.30;;;2.13;;
20012;SDS011;10167;42.852;23.042;2022-12-29T04:05:21;0.95;;;0.95;;
20012;SDS011;10167;42.852;23.042;2022-12-29T04:07:53;1.50;;;1.25;;
20012;SDS011;10167;42.852;23.042;2022-12-29T04:10:23;5.60;;;2.95;;
20012;SDS011;10167;42.852;23.042;2022-12-29T04:12:57;1.42;;;1.23;;
20012;SDS011;10167;42.852;23.042;2022-12-29T04:15:26;2.28;;;1.88;;
20012;SDS011;10167;42.852;23.042;2022-12-29T04:17:56;1.48;;;1.40;;
20012;SDS011;10167;42.852;23.042;2022-12-29T04:20:29;5.22;;;2.35;;
20012;SDS011;10167;42.852;23.042;2022-12-29T04:23:16;5.47;;;1.23;;
20012;SDS011;10167;42.852;23.042;2022-12-29T04:25:45;3.25;;;2.80;;
20012;SDS011;10167;42.852;23.042;2022-12-29T04:28:15;5.18;;;1.67;;
20012;SDS011;10167;42.852;23.042;2022-12-29T04:31:14;1.83;;;1.60;;
20012;SDS011;10167;42.852;23.042;2022-12-29T04:33:45;3.42;;;3.05;;
20012;SDS011;10167;42.852;23.042;2022-12-29T04:36:16;3.28;;;2.97;;
20012;SDS011;10167;42.852;23.042;2022-12-29T04:38:46;2.58;;;1.42;;
20012;SDS011;10167;42.852;23.042;2022-12-29T04:41:15;1.33;;;1.33;;
20012;SDS011;10167;42.852;23.042;2022-12-29T04:43:44;4.75;;;1.55;;
20012;SDS011;10167;42.852;23.042;2022-12-29T04:46:38;2.08;;;1.98;;
20012;SDS011;10167;42.852;23.042;2022-12-29T04:49:16;3.78;;;1.73;;
20012;SDS011;10167;42.852;23.042;2022-12-29T04:52:00;2.67;;;2.20;;
20012;SDS011;10167;42.852;23.042;2022-12-29T04:54:30;4.47;;;1.85;;
20012;SDS011;10167;42.852;23.042;2022-12-29T04:57:08;4.68;;;2.45;;
20012;SDS011;10167;42.852;23.042;2022-12-29T04:59:39;3.30;;;2.08;;
20012;SDS011;10167;42.852;23.042;2022-12-29T05:02:08;2.92;;;1.73;;
20012;SDS011;10167;42.852;23.042;2022-12-29T05:04:38;2.70;;;2.13;;
20012;SDS011;10167;42.852;23.042;2022-12-29T05:07:09;2.05;;;1.85;;
20012;SDS011;10167;42.852;23.042;2022-12-29T05:09:38;4.03;;;3.03;;
20012;SDS011;10167;42.852;23.042;2022-12-29T05:12:07;2.25;;;2.05;;
20012;SDS011;10167;42.852;23.042;2022-12-29T05:14:45;3.33;;;2.05;;
20012;SDS011;10167;42.852;23.042;2022-12-29T05:17:14;2.78;;;2.50;;
20012;SDS011;10167;42.852;23.042;2022-12-29T05:19:44;1.25;;;1.15;;
20012;SDS011;10167;42.852;23.042;2022-12-29T05:22:15;1.05;;;1.00;;
20012;SDS011;10167;42.852;23.042;2022-12-29T05:24:45;1.20;;;1.10;;
20012;SDS011;10167;42.852;23.042;2022-12-29T05:27:15;1.35;;;1.25;;
20012;SDS011;10167;42.852;23.042;2022-12-29T05:30:05;3.22;;;2.30;;
20012;SDS011;10167;42.852;23.042;2022-12-29T05:32:35;1.90;;;1.80;;
20012;SDS011;10167;42.852;23.042;2022-12-29T05:35:04;1.55;;;1.45;;
20012;SDS011;10167;42.852;23.042;2022-12-29T05:37:36;3.10;;;2.13;;
20012;SDS011;10167;42.852;23.042;2022-12-29T05:40:07;0.82;;;0.82;;
20012;SDS011;10167;42.852;23.042;2022-12-29T05:42:38;3.40;;;1.50;;
20012;SDS011;10167;42.852;23.042;2022-12-29T05:45:31;1.30;;;1.20;;
20012;SDS011;10167;42.852;23.042;2022-12-29T05:48:28;2.13;;;1.73;;
20012;SDS011;10167;42.852;23.042;2022-12-29T05:51:24;4.00;;;1.98;;
20012;SDS011;10167;42.852;23.042;2022-12-29T05:53:55;2.53;;;2.33;;
20012;SDS011;10167;42.852;23.042;2022-12-29T05:56:24;16.08;;;5.38;;
20012;SDS011;10167;42.852;23.042;2022-12-29T05:58:57;2.25;;;2.08;;
20012;SDS011;10167;42.852;23.042;2022-12-29T06:01:29;2.25;;;1.98;;
20012;SDS011;10167;42.852;23.042;2022-12-29T06:03:59;3.17;;;2.22;;
20012;SDS011;10167;42.852;23.042;2022-12-29T06:06:28;7.35;;;3.03;;
20012;SDS011;10167;42.852;23.042;2022-12-29T06:08:59;2.95;;;2.72;;
20012;SDS011;10167;42.852;23.042;2022-12-29T06:11:28;2.95;;;2.72;;
20012;SDS011;10167;42.852;23.042;2022-12-29T06:13:59;2.78;;;2.58;;
20012;SDS011;10167;42.852;23.042;2022-12-29T06:16:28;2.95;;;2.67;;
20012;SDS011;10167;42.852;23.042;2022-12-29T06:19:00;3.92;;;2.83;;
20012;SDS011;10167;42.852;23.042;2022-12-29T06:21:30;2.80;;;2.28;;
20012;SDS011;10167;42.852;23.042;2022-12-29T06:24:02;2.70;;;2.47;;
20012;SDS011;10167;42.852;23.042;2022-12-29T06:26:57;2.45;;;2.25;;
20012;SDS011;10167;42.852;23.042;2022-12-29T06:29:27;1.65;;;1.55;;
20012;SDS011;10167;42.852;23.042;2022-12-29T06:31:57;2.15;;;1.98;;
20012;SDS011;10167;42.852;23.042;2022-12-29T06:34:28;1.35;;;1.25;;
20012;SDS011;10167;42.852;23.042;2022-12-29T06:36:57;2.13;;;1.38;;
20012;SDS011;10167;42.852;23.042;2022-12-29T06:39:28;3.28;;;2.03;;
20012;SDS011;10167;42.852;23.042;2022-12-29T06:42:08;1.73;;;1.40;;
20012;SDS011;10167;42.852;23.042;2022-12-29T06:44:40;1.00;;;1.00;;
20012;SDS011;10167;42.852;23.042;2022-12-29T06:47:10;2.15;;;1.00;;
20012;SDS011;10167;42.852;23.042;2022-12-29T06:49:39;4.63;;;3.35;;
20012;SDS011;10167;42.852;23.042;2022-12-29T06:52:08;3.50;;;2.33;;
20012;SDS011;10167;42.852;23.042;2022-12-29T06:54:40;2.55;;;2.35;;
20012;SDS011;10167;42.852;23.042;2022-12-29T06:57:09;3.28;;;2.20;;
20012;SDS011;10167;42.852;23.042;2022-12-29T06:59:40;2.50;;;1.02;;
20012;SDS011;10167;42.852;23.042;2022-12-29T07:02:10;1.67;;;1.58;;
20012;SDS011;10167;42.852;23.042;2022-12-29T07:04:42;3.92;;;2.15;;
20012;SDS011;10167;42.852;23.042;2022-12-29T07:07:11;2.85;;;1.67;;
20012;SDS011;10167;42.852;23.042;2022-12-29T07:09:42;3.65;;;2.40;;
20012;SDS011;10167;42.852;23.042;2022-12-29T07:12:11;4.50;;;2.25;;
20012;SDS011;10167;42.852;23.042;2022-12-29T07:14:41;2.35;;;2.15;;
20012;SDS011;10167;42.852;23.042;2022-12-29T07:17:10;1.25;;;1.15;;
20012;SDS011;10167;42.852;23.042;2022-12-29T07:19:40;1.13;;;1.13;;
20012;SDS011;10167;42.852;23.042;2022-12-29T07:22:09;1.63;;;1.52;;
20012;SDS011;10167;42.852;23.042;2022-12-29T07:24:38;2.60;;;1.77;;
20012;SDS011;10167;42.852;23.042;2022-12-29T07:27:09;1.63;;;1.52;;
20012;SDS011;10167;42.852;23.042;2022-12-29T07:29:38;2.83;;;1.83;;
20012;SDS011;10167;42.852;23.042;2022-12-29T07:32:08;4.90;;;2.78;;
20012;SDS011;10167;42.852;23.042;2022-12-29T07:34:37;8.32;;;4.00;;
20012;SDS011;10167;42.852;23.042;2022-12-29T07:37:18;7.53;;;3.25;;
20012;SDS011;10167;42.852;23.042;2022-12-29T07:39:47;4.70;;;2.83;;
20012;SDS011;10167;42.852;23.042;2022-12-29T07:42:18;3.88;;;2.83;;
20012;SDS011;10167;42.852;23.042;2022-12-29T07:44:51;4.68;;;1.70;;
20012;SDS011;10167;42.852;23.042;2022-12-29T07:47:26;2.65;;;2.45;;
20012;SDS011;10167;42.852;23.042;2022-12-29T07:49:55;6.90;;;2.03;;
20012;SDS011;10167;42.852;23.042;2022-12-29T07:52:24;2.17;;;2.05;;
20012;SDS011;10167;42.852;23.042;2022-12-29T07:54:54;13.70;;;2.63;;
20012;SDS011;10167;42.852;23.042;2022-12-29T07:57:27;3.90;;;1.90;;
20012;SDS011;10167;42.852;23.042;2022-12-29T07:59:58;3.05;;;2.75;;
20012;SDS011;10167;42.852;23.042;2022-12-29T08:02:37;2.70;;;1.90;;
20012;SDS011;10167;42.852;23.042;2022-12-29T08:05:07;2.58;;;2.38;;
20012;SDS011;10167;42.852;23.042;2022-12-29T08:07:37;2.42;;;2.22;;
20012;SDS011;10167;42.852;23.042;2022-12-29T08:10:06;1.88;;;1.75;;
20012;SDS011;10167;42.852;23.042;2022-12-29T08:12:38;10.05;;;2.50;;
20012;SDS011;10167;42.852;23.042;2022-12-29T08:15:10;2.03;;;1.70;;
20012;SDS011;10167;42.852;23.042;2022-12-29T08:17:40;4.78;;;2.40;;
20012;SDS011;10167;42.852;23.042;2022-12-29T08:20:09;1.60;;;1.50;;
20012;SDS011;10167;42.852;23.042;2022-12-29T08:22:39;1.30;;;1.20;;
20012;SDS011;10167;42.852;23.042;2022-12-29T08:25:08;1.65;;;1.55;;
20012;SDS011;10167;42.852;23.042;2022-12-29T08:27:40;1.70;;;1.60;;
20012;SDS011;10167;42.852;23.042;2022-12-29T08:30:09;3.17;;;2.78;;
20012;SDS011;10167;42.852;23.042;2022-12-29T08:32:39;3.90;;;1.85;;
20012;SDS011;10167;42.852;23.042;2022-12-29T08:35:09;2.97;;;1.98;;
20012;SDS011;10167;42.852;23.042;2022-12-29T08:37:40;3.92;;;2.92;;
20012;SDS011;10167;42.852;23.042;2022-12-29T08:40:09;1.33;;;1.23;;
20012;SDS011;10167;42.852;23.042;2022-12-29T08:42:40;3.33;;;2.15;;
20012;SDS011;10167;42.852;23.042;2022-12-29T08:45:10;3.67;;;2.70;;
20012;SDS011;10167;42.852;23.042;2022-12-29T08:47:39;2.45;;;2.25;;
20012;SDS011;10167;42.852;23.042;2022-12-29T08:50:08;4.07;;;1.95;;
20012;SDS011;10167;42.852;23.042;2022-12-29T08:52:37;10.25;;;3.20;;
20012;SDS011;10167;42.852;23.042;2022-12-29T08:55:07;2.03;;;1.88;;
20012;SDS011;10167;42.852;23.042;2022-12-29T08:57:38;6.00;;;2.40;;
20012;SDS011;10167;42.852;23.042;2022-12-29T09:00:15;1.65;;;1.55;;
20012;SDS011;10167;42.852;23.042;2022-12-29T09:02:45;3.55;;;1.42;;
20012;SDS011;10167;42.852;23.042;2022-12-29T09:05:14;5.03;;;1.73;;
20012;SDS011;10167;42.852;23.042;2022-12-29T09:07:44;3.05;;;1.73;;
20012;SDS011;10167;42.852;23.042;2022-12-29T09:10:13;4.63;;;2.15;;
20012;SDS011;10167;42.852;23.042;2022-12-29T09:12:43;2.05;;;1.90;;
20012;SDS011;10167;42.852;23.042;2022-12-29T09:15:12;3.85;;;1.92;;
20012;SDS011;10167;42.852;23.042;2022-12-29T09:17:44;1.50;;;1.40;;
20012;SDS011;10167;42.852;23.042;2022-12-29T09:20:14;1.65;;;0.93;;
20012;SDS011;10167;42.852;23.042;2022-12-29T09:22:45;0.98;;;0.93;;
20012;SDS011;10167;42.852;23.042;2022-12-29T09:25:15;5.28;;;2.38;;
20012;SDS011;10167;42.852;23.042;2022-12-29T09:27:45;1.42;;;1.13;;
20012;SDS011;10167;42.852;23.042;2022-12-29T09:30:15;0.80;;;0.80;;
20012;SDS011;10167;42.852;23.042;2022-12-29T09:32:46;5.13;;;2.47;;
20012;SDS011;10167;42.852;23.042;2022-12-29T09:35:21;1.48;;;1.40;;
20012;SDS011;10167;42.852;23.042;2022-12-29T09:37:50;1.38;;;1.27;;
20012;SDS011;10167;42.852;23.042;2022-12-29T09:40:22;2.58;;;1.13;;
20012;SDS011;10167;42.852;23.042;2022-12-29T09:43:03;1.40;;;1.27;;
20012;SDS011;10167;42.852;23.042;2022-12-29T09:45:43;4.00;;;2.08;;
20012;SDS011;10167;42.852;23.042;2022-12-29T09:48:16;1.00;;;1.00;;
20012;SDS011;10167;42.852;23.042;2022-12-29T09:50:55;3.28;;;2.97;;
20012;SDS011;10167;42.852;23.042;2022-12-29T09:53:27;17.30;;;3.80;;
20012;SDS011;10167;42.852;23.042;2022-12-29T09:56:01;2.45;;;1.60;;
20012;SDS011;10167;42.852;23.042;2022-12-29T09:58:32;1.85;;;1.75;;
20012;SDS011;10167;42.852;23.042;2022-12-29T10:01:21;0.95;;;0.73;;
20012;SDS011;10167;42.852;23.042;2022-12-29T10:03:58;0.80;;;0.80;;
20012;SDS011;10167;42.852;23.042;2022-12-29T10:06:33;1.75;;;1.40;;
20012;SDS011;10167;42.852;23.042;2022-12-29T10:09:30;1.85;;;1.75;;
20012;SDS011;10167;42.852;23.042;2022-12-29T10:12:06;5.95;;;2.05;;
20012;SDS011;10167;42.852;23.042;2022-12-29T10:14:56;1.40;;;1.20;;
20012;SDS011;10167;42.852;23.042;2022-12-29T10:17:34;12.18;;;3.38;;
20012;SDS011;10167;42.852;23.042;2022-12-29T10:20:17;2.20;;;1.80;;
20012;SDS011;10167;42.852;23.042;2022-12-29T10:23:00;4.03;;;2.72;;
20012;SDS011;10167;42.852;23.042;2022-12-29T10:25:42;0.88;;;0.88;;
20012;SDS011;10167;42.852;23.042;2022-12-29T10:28:15;1.75;;;1.65;;
20012;SDS011;10167;42.852;23.042;2022-12-29T10:30:51;1.88;;;1.67;;
20012;SDS011;10167;42.852;23.042;2022-12-29T10:33:33;6.03;;;2.13;;
20012;SDS011;10167;42.852;23.042;2022-12-29T10:36:10;2.78;;;2.30;;
20012;SDS011;10167;42.852;23.042;2022-12-29T10:38:46;3.88;;;2.33;;
20012;SDS011;10167;42.852;23.042;2022-12-29T10:41:23;1.65;;;1.35;;
20012;SDS011;10167;42.852;23.042;2022-12-29T10:43:57;3.78;;;2.50;;
20012;SDS011;10167;42.852;23.042;2022-12-29T10:46:29;1.90;;;1.77;;
20012;SDS011;10167;42.852;23.042;2022-12-29T10:49:02;8.65;;;3.20;;
20012;SDS011;10167;42.852;23.042;2022-12-29T10:51:35;3.40;;;2.80;;
20012;SDS011;10167;42.852;23.042;2022-12-29T10:54:10;1.63;;;1.38;;
20012;SDS011;10167;42.852;23.042;2022-12-29T10:56:43;3.15;;;2.65;;
20012;SDS011;10167;42.852;23.042;2022-12-29T10:59:16;5.37;;;3.73;;
20012;SDS011;10167;42.852;23.042;2022-12-29T11:01:51;6.53;;;3.42;;
20012;SDS011;10167;42.852;23.042;2022-12-29T11:04:33;10.73;;;5.55;;
20012;SDS011;10167;42.852;23.042;2022-12-29T11:07:14;8.25;;;2.90;;
20012;SDS011;10167;42.852;23.042;2022-12-29T11:09:53;1.15;;;1.15;;
20012;SDS011;10167;42.852;23.042;2022-12-29T11:12:24;5.18;;;3.78;;
20012;SDS011;10167;42.852;23.042;2022-12-29T11:15:05;4.82;;;3.90;;
20012;SDS011;10167;42.852;23.042;2022-12-29T11:17:43;6.10;;;2.95;;
20012;SDS011;10167;42.852;23.042;2022-12-29T11:20:27;7.63;;;3.10;;
20012;SDS011;10167;42.852;23.042;2022-12-29T11:23:00;2.65;;;1.80;;
20012;SDS011;10167;42.852;23.042;2022-12-29T11:25:31;5.95;;;2.72;;
20012;SDS011;10167;42.852;23.042;2022-12-29T11:28:13;3.60;;;1.75;;
20012;SDS011;10167;42.852;23.042;2022-12-29T11:30:43;3.97;;;1.75;;
20012;SDS011;10167;42.852;23.042;2022-12-29T11:33:13;4.35;;;2.78;;
20012;SDS011;10167;42.852;23.042;2022-12-29T11:35:42;9.98;;;5.97;;
20012;SDS011;10167;42.852;23.042;2022-12-29T11:38:18;6.03;;;3.47;;
20012;SDS011;10167;42.852;23.042;2022-12-29T11:40:50;4.45;;;3.80;;
20012;SDS011;10167;42.852;23.042;2022-12-29T11:43:21;7.45;;;3.78;;
20012;SDS011;10167;42.852;23.042;2022-12-29T11:45:56;3.88;;;2.35;;
20012;SDS011;10167;42.852;23.042;2022-12-29T11:48:26;3.10;;;2.08;;
20012;SDS011;10167;42.852;23.042;2022-12-29T11:51:00;2.28;;;1.80;;
20012;SDS011;10167;42.852;23.042;2022-12-29T11:53:32;6.65;;;3.20;;
20012;SDS011;10167;42.852;23.042;2022-12-29T11:56:08;4.45;;;2.85;;
20012;SDS011;10167;42.852;23.042;2022-12-29T11:58:41;1.75;;;1.65;;
20012;SDS011;10167;42.852;23.042;2022-12-29T12:01:19;5.72;;;3.28;;
20012;SDS011;10167;42.852;23.042;2022-12-29T12:03:56;1.33;;;1.23;;
20012;SDS011;10167;42.852;23.042;2022-12-29T12:06:32;2.40;;;2.20;;
20012;SDS011;10167;42.852;23.042;2022-12-29T12:09:14;7.10;;;3.78;;
20012;SDS011;10167;42.852;23.042;2022-12-29T12:11:51;4.05;;;3.00;;
20012;SDS011;10167;42.852;23.042;2022-12-29T12:14:23;3.22;;;1.73;;
20012;SDS011;10167;42.852;23.042;2022-12-29T12:17:30;3.17;;;2.03;;
20012;SDS011;10167;42.852;23.042;2022-12-29T12:20:10;9.00;;;3.15;;
20012;SDS011;10167;42.852;23.042;2022-12-29T12:22:46;4.60;;;4.20;;
20012;SDS011;10167;42.852;23.042;2022-12-29T12:25:27;2.78;;;2.53;;
20012;SDS011;10167;42.852;23.042;2022-12-29T12:28:05;3.60;;;2.50;;
20012;SDS011;10167;42.852;23.042;2022-12-29T12:30:43;7.20;;;3.50;;
20012;SDS011;10167;42.852;23.042;2022-12-29T12:33:22;3.13;;;2.83;;
20012;SDS011;10167;42.852;23.042;2022-12-29T12:36:00;3.35;;;2.90;;
20012;SDS011;10167;42.852;23.042;2022-12-29T12:38:44;10.32;;;2.00;;
20012;SDS011;10167;42.852;23.042;2022-12-29T12:41:28;4.22;;;3.28;;
20012;SDS011;10167;42.852;23.042;2022-12-29T12:44:10;1.48;;;1.20;;
20012;SDS011;10167;42.852;23.042;2022-12-29T12:46:54;3.90;;;3.33;;
20012;SDS011;10167;42.852;23.042;2022-12-29T12:52:52;3.50;;;2.33;;
20012;SDS011;10167;42.852;23.042;2022-12-29T12:55:43;3.65;;;2.05;;
20012;SDS011;10167;42.852;23.042;2022-12-29T12:58:25;2.47;;;2.05;;
20012;SDS011;10167;42.852;23.042;2022-12-29T13:01:10;3.13;;;2.88;;
20012;SDS011;10167;42.852;23.042;2022-12-29T13:03:51;4.07;;;2.55;;
20012;SDS011;10167;42.852;23.042;2022-12-29T13:06:35;4.10;;;2.42;;
20012;SDS011;10167;42.852;23.042;2022-12-29T13:09:20;9.32;;;2.10;;
20012;SDS011;10167;42.852;23.042;2022-12-29T13:12:06;3.35;;;2.72;;
20012;SDS011;10167;42.852;23.042;2022-12-29T13:14:51;3.33;;;2.45;;
20012;SDS011;10167;42.852;23.042;2022-12-29T13:17:30;5.65;;;3.30;;
20012;SDS011;10167;42.852;23.042;2022-12-29T13:20:07;2.53;;;1.75;;
20012;SDS011;10167;42.852;23.042;2022-12-29T13:22:48;2.20;;;1.90;;
20012;SDS011;10167;42.852;23.042;2022-12-29T13:25:28;4.85;;;2.45;;
20012;SDS011;10167;42.852;23.042;2022-12-29T13:28:06;1.52;;;1.23;;
20012;SDS011;10167;42.852;23.042;2022-12-29T13:30:47;5.93;;;2.33;;
20012;SDS011;10167;42.852;23.042;2022-12-29T13:33:28;3.05;;;2.30;;
20012;SDS011;10167;42.852;23.042;2022-12-29T13:36:05;2.50;;;2.30;;
20012;SDS011;10167;42.852;23.042;2022-12-29T13:38:39;5.22;;;2.85;;
20012;SDS011;10167;42.852;23.042;2022-12-29T13:43:45;2.30;;;1.60;;
20012;SDS011;10167;42.852;23.042;2022-12-29T13:48:51;2.17;;;1.90;;
20012;SDS011;10167;42.852;23.042;2022-12-29T13:51:23;4.22;;;3.30;;
20012;SDS011;10167;42.852;23.042;2022-12-29T13:54:00;6.47;;;3.35;;
20012;SDS011;10167;42.852;23.042;2022-12-29T13:56:39;6.13;;;2.70;;
20012;SDS011;10167;42.852;23.042;2022-12-29T13:59:14;3.50;;;2.45;;
20012;SDS011;10167;42.852;23.042;2022-12-29T14:01:53;3.95;;;2.25;;
20012;SDS011;10167;42.852;23.042;2022-12-29T14:04:28;4.30;;;3.28;;
20012;SDS011;10167;42.852;23.042;2022-12-29T14:07:03;5.53;;;3.70;;
20012;SDS011;10167;42.852;23.042;2022-12-29T14:09:41;2.33;;;2.08;;
20012;SDS011;10167;42.852;23.042;2022-12-29T14:12:22;3.70;;;3.25;;
20012;SDS011;10167;42.852;23.042;2022-12-29T14:15:05;7.03;;;2.97;;
20012;SDS011;10167;42.852;23.042;2022-12-29T14:17:45;2.10;;;1.90;;
20012;SDS011;10167;42.852;23.042;2022-12-29T14:20:31;5.20;;;3.28;;
20012;SDS011;10167;42.852;23.042;2022-12-29T14:23:14;9.68;;;6.05;;
20012;SDS011;10167;42.852;23.042;2022-12-29T14:28:44;17.13;;;8.00;;
20012;SDS011;10167;42.852;23.042;2022-12-29T14:31:34;8.60;;;5.70;;
20012;SDS011;10167;42.852;23.042;2022-12-29T14:34:28;13.18;;;4.68;;
20012;SDS011;10167;42.852;23.042;2022-12-29T14:36:59;8.88;;;4.80;;
20012;SDS011;10167;42.852;23.042;2022-12-29T14:39:37;24.92;;;10.93;;
20012;SDS011;10167;42.852;23.042;2022-12-29T14:42:28;34.97;;;14.30;;
20012;SDS011;10167;42.852;23.042;2022-12-29T14:45:00;31.65;;;16.15;;
20012;SDS011;10167;42.852;23.042;2022-12-29T14:47:36;46.67;;;15.65;;
20012;SDS011;10167;42.852;23.042;2022-12-29T14:50:12;28.45;;;16.50;;
20012;SDS011;10167;42.852;23.042;2022-12-29T14:52:45;8.82;;;6.82;;
20012;SDS011;10167;42.852;23.042;2022-12-29T14:55:31;7.80;;;5.25;;
20012;SDS011;10167;42.852;23.042;2022-12-29T14:58:12;31.23;;;12.70;;
20012;SDS011;10167;42.852;23.042;2022-12-29T15:00:45;34.78;;;13.68;;
20012;SDS011;10167;42.852;23.042;2022-12-29T15:03:17;35.35;;;14.40;;
20012;SDS011;10167;42.852;23.042;2022-12-29T15:05:53;86.80;;;28.65;;
20012;SDS011;10167;42.852;23.042;2022-12-29T15:08:24;63.60;;;24.67;;
20012;SDS011;10167;42.852;23.042;2022-12-29T15:10:56;55.03;;;23.50;;
20012;SDS011;10167;42.852;23.042;2022-12-29T15:13:33;22.40;;;14.32;;
20012;SDS011;10167;42.852;23.042;2022-12-29T15:16:04;27.77;;;12.80;;
20012;SDS011;10167;42.852;23.042;2022-12-29T15:18:49;18.55;;;11.60;;
20012;SDS011;10167;42.852;23.042;2022-12-29T15:21:20;15.77;;;6.72;;
20012;SDS011;10167;42.852;23.042;2022-12-29T15:23:53;26.30;;;13.35;;
20012;SDS011;10167;42.852;23.042;2022-12-29T15:26:23;7.70;;;6.50;;
20012;SDS011;10167;42.852;23.042;2022-12-29T15:29:05;10.95;;;8.18;;
20012;SDS011;10167;42.852;23.042;2022-12-29T15:31:57;14.43;;;7.13;;
20012;SDS011;10167;42.852;23.042;2022-12-29T15:34:30;20.27;;;12.93;;
20012;SDS011;10167;42.852;23.042;2022-12-29T15:37:06;22.13;;;12.98;;
20012;SDS011;10167;42.852;23.042;2022-12-29T15:39:36;24.98;;;10.90;;